EZY68HV EKCH-EGCC
Flight info
| Callsign | EZY68HV |
|---|---|
| Flight time | 1h 35m |
| Altitude | 38000 |
| Route | ODDON DCT RENEQ DCT ERDOW UL975 LIBSO |
| Aircraft | A320/M-SDE3FGHIRWY/LB1 |
Departure
| Time | 2026-04-22 23:52 |
|---|---|
| Airport | Copenhagen Kastrup Airport (EKCH) |
Arrival
| Time | 2026-04-23 01:27 |
|---|---|
| Airport | Manchester Airport (EGCC) |
| Time | Latitude | Longitude | Altitude | Speed | Heading |
|---|---|---|---|---|---|
| 2026-04-22 23:15 | 55.62521 | 12.65574 | 24 ft | 0 kts | 23° |
| 2026-04-22 23:41 | 55.62520 | 12.65572 | 24 ft | 2 kts | 23° |
| 2026-04-22 23:41 | 55.62496 | 12.65555 | 25 ft | 4 kts | 23° |
| 2026-04-22 23:42 | 55.62474 | 12.65538 | 27 ft | 4 kts | 21° |
| 2026-04-22 23:42 | 55.62453 | 12.65532 | 28 ft | 4 kts | 320° |
| 2026-04-22 23:42 | 55.62444 | 12.65568 | 28 ft | 4 kts | 271° |
| 2026-04-22 23:42 | 55.62444 | 12.65603 | 24 ft | 0 kts | 269° |
| 2026-04-22 23:45 | 55.62444 | 12.65579 | 25 ft | 5 kts | 269° |
| 2026-04-22 23:45 | 55.62443 | 12.65475 | 24 ft | 12 kts | 269° |
| 2026-04-22 23:46 | 55.62440 | 12.65305 | 24 ft | 13 kts | 268° |
| 2026-04-22 23:46 | 55.62407 | 12.65205 | 24 ft | 9 kts | 194° |
| 2026-04-22 23:46 | 55.62349 | 12.65206 | 24 ft | 8 kts | 177° |
| 2026-04-22 23:46 | 55.62295 | 12.65201 | 24 ft | 7 kts | 187° |
| 2026-04-22 23:47 | 55.62248 | 12.65199 | 24 ft | 7 kts | 179° |
| 2026-04-22 23:47 | 55.62208 | 12.65178 | 24 ft | 6 kts | 210° |
| 2026-04-22 23:47 | 55.62152 | 12.65115 | 26 ft | 13 kts | 213° |
| 2026-04-22 23:47 | 55.62067 | 12.65016 | 26 ft | 15 kts | 213° |
| 2026-04-22 23:48 | 55.61973 | 12.64906 | 25 ft | 17 kts | 213° |
| 2026-04-22 23:48 | 55.61866 | 12.64785 | 24 ft | 18 kts | 212° |
| 2026-04-22 23:48 | 55.61761 | 12.64665 | 26 ft | 10 kts | 214° |
| 2026-04-22 23:48 | 55.61715 | 12.64610 | 24 ft | 7 kts | 214° |
| 2026-04-22 23:49 | 55.61678 | 12.64566 | 24 ft | 6 kts | 215° |
| 2026-04-22 23:49 | 55.61658 | 12.64496 | 24 ft | 9 kts | 259° |
| 2026-04-22 23:49 | 55.61650 | 12.64356 | 24 ft | 14 kts | 265° |
| 2026-04-22 23:49 | 55.61642 | 12.64177 | 26 ft | 12 kts | 265° |
| 2026-04-22 23:50 | 55.61637 | 12.64116 | 27 ft | 7 kts | 256° |
| 2026-04-22 23:50 | 55.61598 | 12.64025 | 27 ft | 9 kts | 221° |
| 2026-04-22 23:50 | 55.61554 | 12.63961 | 26 ft | 0 kts | 219° |
| 2026-04-22 23:50 | 55.61549 | 12.63953 | 27 ft | 3 kts | 220° |
| 2026-04-22 23:51 | 55.61496 | 12.63871 | 27 ft | 22 kts | 221° |
| 2026-04-22 23:51 | 55.61203 | 12.63408 | 28 ft | 93 kts | 221° |
| 2026-04-22 23:51 | 55.60559 | 12.62416 | 27 ft | 150 kts | 221° |
| 2026-04-22 23:51 | 55.59692 | 12.61061 | 328 ft | 171 kts | 223° |
| 2026-04-22 23:52 | 55.58815 | 12.59667 | 1035 ft | 170 kts | 226° |
| 2026-04-22 23:52 | 55.57905 | 12.58216 | 1460 ft | 187 kts | 224° |
| 2026-04-22 23:52 | 55.56874 | 12.56623 | 1763 ft | 206 kts | 223° |
| 2026-04-22 23:52 | 55.55918 | 12.54636 | 1968 ft | 223 kts | 248° |
| 2026-04-22 23:53 | 55.55632 | 12.51877 | 2149 ft | 239 kts | 277° |
| 2026-04-22 23:53 | 55.55912 | 12.48898 | 2473 ft | 253 kts | 290° |
| 2026-04-22 23:53 | 55.56425 | 12.45893 | 3087 ft | 257 kts | 290° |
| 2026-04-22 23:53 | 55.56851 | 12.42821 | 3815 ft | 258 kts | 287° |
| 2026-04-22 23:54 | 55.57198 | 12.39719 | 4517 ft | 258 kts | 284° |
| 2026-04-22 23:54 | 55.57497 | 12.36596 | 5195 ft | 258 kts | 283° |
| 2026-04-22 23:54 | 55.57768 | 12.33462 | 5790 ft | 258 kts | 283° |
| 2026-04-22 23:54 | 55.58013 | 12.30302 | 6445 ft | 262 kts | 281° |
| 2026-04-22 23:55 | 55.58204 | 12.26009 | 7112 ft | 265 kts | 278° |
| 2026-04-22 23:55 | 55.58269 | 12.23809 | 7206 ft | 265 kts | 277° |
| 2026-04-22 23:55 | 55.58353 | 12.20557 | 7274 ft | 265 kts | 277° |
| 2026-04-22 23:55 | 55.58440 | 12.17253 | 7983 ft | 270 kts | 277° |
| 2026-04-22 23:56 | 55.58530 | 12.13940 | 8990 ft | 271 kts | 278° |
| 2026-04-22 23:56 | 55.58625 | 12.10587 | 9928 ft | 275 kts | 278° |
| 2026-04-22 23:56 | 55.58727 | 12.07159 | 10579 ft | 289 kts | 278° |
| 2026-04-22 23:56 | 55.58843 | 12.03480 | 10960 ft | 309 kts | 277° |
| 2026-04-22 23:57 | 55.58963 | 11.99634 | 11647 ft | 317 kts | 277° |
| 2026-04-22 23:57 | 55.59080 | 11.95702 | 12425 ft | 323 kts | 277° |
| 2026-04-22 23:57 | 55.59193 | 11.91756 | 13185 ft | 329 kts | 276° |
| 2026-04-22 23:57 | 55.59306 | 11.87689 | 13951 ft | 334 kts | 276° |
| 2026-04-22 23:58 | 55.59422 | 11.83557 | 14626 ft | 339 kts | 276° |
| 2026-04-22 23:58 | 55.59540 | 11.79360 | 15273 ft | 344 kts | 276° |
| 2026-04-22 23:58 | 55.59659 | 11.75101 | 15915 ft | 349 kts | 276° |
| 2026-04-22 23:58 | 55.59779 | 11.70786 | 16565 ft | 354 kts | 276° |
| 2026-04-22 23:59 | 55.59900 | 11.66404 | 17223 ft | 359 kts | 276° |
| 2026-04-22 23:59 | 55.60022 | 11.61974 | 17876 ft | 363 kts | 275° |
| 2026-04-22 23:59 | 55.60144 | 11.57481 | 18517 ft | 368 kts | 275° |
| 2026-04-22 23:59 | 55.60264 | 11.52932 | 19089 ft | 372 kts | 275° |
| 2026-04-23 00:00 | 55.60496 | 11.43686 | 20220 ft | 380 kts | 275° |
| 2026-04-23 00:00 | 55.60598 | 11.38984 | 20776 ft | 385 kts | 272° |
| 2026-04-23 00:00 | 55.60468 | 11.34219 | 21316 ft | 390 kts | 269° |
| 2026-04-23 00:01 | 55.60314 | 11.29477 | 21861 ft | 394 kts | 269° |
| 2026-04-23 00:01 | 55.60156 | 11.24628 | 22387 ft | 397 kts | 269° |
| 2026-04-23 00:01 | 55.59994 | 11.19724 | 22910 ft | 401 kts | 269° |
| 2026-04-23 00:01 | 55.59833 | 11.14784 | 23420 ft | 405 kts | 269° |
| 2026-04-23 00:02 | 55.59670 | 11.09793 | 23920 ft | 409 kts | 268° |
| 2026-04-23 00:02 | 55.59504 | 11.04753 | 24351 ft | 412 kts | 268° |
| 2026-04-23 00:02 | 55.59335 | 10.99679 | 24775 ft | 415 kts | 268° |
| 2026-04-23 00:02 | 55.59162 | 10.94559 | 25189 ft | 419 kts | 268° |
| 2026-04-23 00:03 | 55.58987 | 10.89404 | 25611 ft | 422 kts | 268° |
| 2026-04-23 00:03 | 55.58805 | 10.84209 | 26016 ft | 425 kts | 268° |
| 2026-04-23 00:03 | 55.58611 | 10.78979 | 26419 ft | 428 kts | 268° |
| 2026-04-23 00:03 | 55.58414 | 10.73703 | 26821 ft | 431 kts | 268° |
| 2026-04-23 00:04 | 55.58213 | 10.68393 | 27213 ft | 435 kts | 266° |
| 2026-04-23 00:04 | 55.57706 | 10.63100 | 27591 ft | 440 kts | 256° |
| 2026-04-23 00:04 | 55.56804 | 10.57911 | 27973 ft | 443 kts | 253° |
| 2026-04-23 00:04 | 55.55861 | 10.52706 | 28352 ft | 446 kts | 253° |
| 2026-04-23 00:05 | 55.54910 | 10.47461 | 28729 ft | 449 kts | 253° |
| 2026-04-23 00:05 | 55.53952 | 10.42196 | 29110 ft | 452 kts | 253° |
| 2026-04-23 00:05 | 55.52985 | 10.36892 | 29479 ft | 455 kts | 253° |
| 2026-04-23 00:05 | 55.52014 | 10.31561 | 29844 ft | 458 kts | 253° |
| 2026-04-23 00:06 | 55.51037 | 10.26187 | 30204 ft | 461 kts | 253° |
| 2026-04-23 00:06 | 55.50055 | 10.20781 | 30537 ft | 464 kts | 253° |
| 2026-04-23 00:06 | 55.49064 | 10.15349 | 30836 ft | 467 kts | 253° |
| 2026-04-23 00:06 | 55.48065 | 10.09886 | 31138 ft | 469 kts | 252° |
| 2026-04-23 00:07 | 55.47057 | 10.04402 | 31426 ft | 472 kts | 252° |
| 2026-04-23 00:07 | 55.46039 | 9.98893 | 31730 ft | 473 kts | 252° |
| 2026-04-23 00:07 | 55.45015 | 9.93384 | 32119 ft | 473 kts | 252° |
| 2026-04-23 00:07 | 55.44003 | 9.87960 | 32522 ft | 472 kts | 252° |
| 2026-04-23 00:08 | 55.42975 | 9.82472 | 32903 ft | 472 kts | 252° |
| 2026-04-23 00:08 | 55.41946 | 9.76989 | 33283 ft | 472 kts | 251° |
| 2026-04-23 00:08 | 55.40915 | 9.71510 | 33670 ft | 472 kts | 251° |
| 2026-04-23 00:08 | 55.39883 | 9.66037 | 34082 ft | 471 kts | 251° |
| 2026-04-23 00:09 | 55.38849 | 9.60556 | 34416 ft | 472 kts | 251° |
| 2026-04-23 00:09 | 55.37814 | 9.55074 | 34731 ft | 472 kts | 251° |
| 2026-04-23 00:09 | 55.36777 | 9.49597 | 35037 ft | 472 kts | 251° |
| 2026-04-23 00:09 | 55.35736 | 9.44128 | 35323 ft | 472 kts | 251° |
| 2026-04-23 00:10 | 55.34691 | 9.38657 | 35642 ft | 472 kts | 250° |
| 2026-04-23 00:10 | 55.33647 | 9.33202 | 35954 ft | 471 kts | 250° |
| 2026-04-23 00:10 | 55.32601 | 9.27753 | 36247 ft | 471 kts | 250° |
| 2026-04-23 00:10 | 55.31554 | 9.22305 | 36529 ft | 470 kts | 250° |
| 2026-04-23 00:11 | 55.30505 | 9.16871 | 36802 ft | 470 kts | 250° |
| 2026-04-23 00:11 | 55.29452 | 9.11437 | 37072 ft | 470 kts | 250° |
| 2026-04-23 00:11 | 55.28399 | 9.06013 | 37339 ft | 470 kts | 250° |
| 2026-04-23 00:11 | 55.27343 | 9.00590 | 37599 ft | 470 kts | 249° |
| 2026-04-23 00:12 | 55.26286 | 8.95172 | 37853 ft | 469 kts | 249° |
| 2026-04-23 00:12 | 55.25228 | 8.89756 | 38108 ft | 469 kts | 249° |
| 2026-04-23 00:12 | 55.24169 | 8.84353 | 38303 ft | 470 kts | 249° |
| 2026-04-23 00:13 | 55.22044 | 8.73584 | 38345 ft | 469 kts | 248° |
| 2026-04-23 00:13 | 55.19890 | 8.62741 | 38346 ft | 473 kts | 248° |
| 2026-04-23 00:14 | 55.17723 | 8.51875 | 38349 ft | 473 kts | 248° |
| 2026-04-23 00:14 | 55.15540 | 8.41010 | 38361 ft | 473 kts | 248° |
| 2026-04-23 00:15 | 55.13367 | 8.30222 | 38359 ft | 474 kts | 248° |
| 2026-04-23 00:15 | 55.11171 | 8.19378 | 38371 ft | 473 kts | 248° |
| 2026-04-23 00:16 | 55.08964 | 8.08560 | 38389 ft | 472 kts | 248° |
| 2026-04-23 00:16 | 55.06757 | 7.97762 | 38392 ft | 472 kts | 248° |
| 2026-04-23 00:17 | 55.04547 | 7.86999 | 38395 ft | 471 kts | 247° |
| 2026-04-23 00:17 | 55.02317 | 7.76259 | 38400 ft | 471 kts | 247° |
| 2026-04-23 00:18 | 55.00078 | 7.65546 | 38424 ft | 470 kts | 247° |
| 2026-04-23 00:18 | 54.97845 | 7.54860 | 38421 ft | 469 kts | 247° |
| 2026-04-23 00:19 | 54.95610 | 7.44213 | 38418 ft | 468 kts | 247° |
| 2026-04-23 00:19 | 54.93365 | 7.33602 | 38424 ft | 467 kts | 247° |
| 2026-04-23 00:20 | 54.91110 | 7.23016 | 38425 ft | 467 kts | 246° |
| 2026-04-23 00:20 | 54.88853 | 7.12448 | 38429 ft | 466 kts | 246° |
| 2026-04-23 00:21 | 54.86587 | 7.01900 | 38432 ft | 466 kts | 246° |
| 2026-04-23 00:21 | 54.84309 | 6.91367 | 38439 ft | 466 kts | 246° |
| 2026-04-23 00:22 | 54.82022 | 6.80846 | 38438 ft | 466 kts | 246° |
| 2026-04-23 00:22 | 54.79726 | 6.70330 | 38452 ft | 467 kts | 246° |
| 2026-04-23 00:23 | 54.77418 | 6.59815 | 38442 ft | 467 kts | 246° |
| 2026-04-23 00:23 | 54.75119 | 6.49370 | 38448 ft | 467 kts | 246° |
| 2026-04-23 00:24 | 54.72787 | 6.38857 | 38449 ft | 468 kts | 246° |
| 2026-04-23 00:24 | 54.70445 | 6.28351 | 38448 ft | 468 kts | 246° |
| 2026-04-23 00:25 | 54.68098 | 6.17850 | 38454 ft | 469 kts | 245° |
| 2026-04-23 00:25 | 54.65735 | 6.07353 | 38455 ft | 469 kts | 245° |
| 2026-04-23 00:26 | 54.63365 | 5.96868 | 38462 ft | 469 kts | 245° |
| 2026-04-23 00:26 | 54.60984 | 5.86401 | 38487 ft | 469 kts | 245° |
| 2026-04-23 00:27 | 54.58591 | 5.75930 | 38477 ft | 470 kts | 245° |
| 2026-04-23 00:27 | 54.56188 | 5.65451 | 38470 ft | 470 kts | 245° |
| 2026-04-23 00:28 | 54.53776 | 5.54972 | 38474 ft | 471 kts | 245° |
| 2026-04-23 00:28 | 54.51371 | 5.44573 | 38477 ft | 471 kts | 245° |
| 2026-04-23 00:29 | 54.48940 | 5.34116 | 38481 ft | 471 kts | 245° |
| 2026-04-23 00:29 | 54.46492 | 5.23679 | 38483 ft | 470 kts | 244° |
| 2026-04-23 00:30 | 54.44037 | 5.13257 | 38481 ft | 470 kts | 244° |
| 2026-04-23 00:30 | 54.41571 | 5.02855 | 38486 ft | 470 kts | 244° |
| 2026-04-23 00:31 | 54.39106 | 4.92467 | 38507 ft | 470 kts | 245° |
| 2026-04-23 00:31 | 54.36642 | 4.82104 | 38494 ft | 469 kts | 244° |
| 2026-04-23 00:32 | 54.34164 | 4.71766 | 38491 ft | 469 kts | 244° |
| 2026-04-23 00:32 | 54.31679 | 4.61452 | 38493 ft | 468 kts | 244° |
| 2026-04-23 00:33 | 54.29185 | 4.51153 | 38491 ft | 468 kts | 244° |
| 2026-04-23 00:33 | 54.26684 | 4.40866 | 38496 ft | 468 kts | 244° |
| 2026-04-23 00:34 | 54.24308 | 4.30508 | 38498 ft | 470 kts | 252° |
| 2026-04-23 00:34 | 54.23195 | 4.19460 | 38504 ft | 472 kts | 260° |
| 2026-04-23 00:35 | 54.22340 | 4.08361 | 38511 ft | 470 kts | 260° |
| 2026-04-23 00:35 | 54.21465 | 3.97307 | 38521 ft | 469 kts | 260° |
| 2026-04-23 00:36 | 54.20572 | 3.86292 | 38518 ft | 468 kts | 260° |
| 2026-04-23 00:36 | 54.19667 | 3.75300 | 38516 ft | 467 kts | 260° |
| 2026-04-23 00:37 | 54.18775 | 3.64398 | 38518 ft | 465 kts | 261° |
| 2026-04-23 00:37 | 54.17871 | 3.53524 | 38507 ft | 461 kts | 261° |
| 2026-04-23 00:38 | 54.16954 | 3.42690 | 38499 ft | 461 kts | 261° |
| 2026-04-23 00:38 | 54.16026 | 3.31862 | 38517 ft | 461 kts | 261° |
| 2026-04-23 00:39 | 54.15099 | 3.21036 | 38511 ft | 461 kts | 261° |
| 2026-04-23 00:39 | 54.14155 | 3.10210 | 38526 ft | 461 kts | 261° |
| 2026-04-23 00:40 | 54.13197 | 2.99392 | 38520 ft | 461 kts | 261° |
| 2026-04-23 00:40 | 54.12233 | 2.88578 | 38524 ft | 461 kts | 261° |
| 2026-04-23 00:41 | 54.11264 | 2.77777 | 38529 ft | 461 kts | 261° |
| 2026-04-23 00:41 | 54.10284 | 2.66975 | 38528 ft | 461 kts | 261° |
| 2026-04-23 00:42 | 54.09461 | 2.58007 | 38525 ft | 461 kts | 261° |
| 2026-04-23 00:42 | 54.08452 | 2.47222 | 38529 ft | 461 kts | 261° |
| 2026-04-23 00:43 | 54.07275 | 2.34699 | 38529 ft | 461 kts | 261° |
| 2026-04-23 00:43 | 54.06432 | 2.25678 | 38528 ft | 461 kts | 261° |
| 2026-04-23 00:44 | 54.05412 | 2.14916 | 38533 ft | 461 kts | 261° |
| 2026-04-23 00:44 | 54.04374 | 2.04160 | 38541 ft | 460 kts | 261° |
| 2026-04-23 00:45 | 54.03338 | 1.93502 | 38541 ft | 459 kts | 261° |
| 2026-04-23 00:45 | 54.02289 | 1.82793 | 38539 ft | 459 kts | 261° |
| 2026-04-23 00:46 | 54.01221 | 1.72092 | 38527 ft | 459 kts | 260° |
| 2026-04-23 00:46 | 54.00150 | 1.61412 | 38537 ft | 458 kts | 260° |
| 2026-04-23 00:47 | 53.99077 | 1.50738 | 38542 ft | 458 kts | 261° |
| 2026-04-23 00:47 | 53.98001 | 1.40093 | 38548 ft | 457 kts | 261° |
| 2026-04-23 00:48 | 53.96910 | 1.29479 | 38543 ft | 456 kts | 260° |
| 2026-04-23 00:48 | 53.95797 | 1.18891 | 38537 ft | 455 kts | 260° |
| 2026-04-23 00:49 | 53.94685 | 1.08310 | 38537 ft | 455 kts | 260° |
| 2026-04-23 00:49 | 53.93562 | 0.97742 | 38541 ft | 454 kts | 260° |
| 2026-04-23 00:50 | 53.92181 | 0.87387 | 38541 ft | 454 kts | 250° |
| 2026-04-23 00:50 | 53.89082 | 0.78115 | 38538 ft | 454 kts | 230° |
| 2026-04-23 00:50 | 53.86994 | 0.74105 | 38415 ft | 454 kts | 228° |
| 2026-04-23 00:51 | 53.84888 | 0.70126 | 38104 ft | 454 kts | 229° |
| 2026-04-23 00:51 | 53.82787 | 0.66145 | 37567 ft | 453 kts | 229° |
| 2026-04-23 00:51 | 53.80693 | 0.62170 | 37041 ft | 452 kts | 229° |
| 2026-04-23 00:51 | 53.78596 | 0.58197 | 36528 ft | 453 kts | 229° |
| 2026-04-23 00:52 | 53.76494 | 0.54226 | 36026 ft | 454 kts | 230° |
| 2026-04-23 00:52 | 53.74391 | 0.50258 | 35524 ft | 452 kts | 231° |
| 2026-04-23 00:52 | 53.72296 | 0.46314 | 35044 ft | 449 kts | 231° |
| 2026-04-23 00:52 | 53.70213 | 0.42398 | 34374 ft | 449 kts | 232° |
| 2026-04-23 00:53 | 53.68112 | 0.38452 | 33544 ft | 452 kts | 232° |
| 2026-04-23 00:53 | 53.66025 | 0.34549 | 33087 ft | 445 kts | 232° |
| 2026-04-23 00:53 | 53.63959 | 0.30688 | 32500 ft | 442 kts | 232° |
| 2026-04-23 00:53 | 53.61905 | 0.26858 | 31943 ft | 439 kts | 232° |
| 2026-04-23 00:54 | 53.59862 | 0.23061 | 31400 ft | 436 kts | 232° |
| 2026-04-23 00:54 | 53.57835 | 0.19297 | 30861 ft | 433 kts | 232° |
| 2026-04-23 00:54 | 53.55892 | 0.15465 | 30272 ft | 426 kts | 239° |
| 2026-04-23 00:54 | 53.54442 | 0.11216 | 29749 ft | 413 kts | 251° |
| 2026-04-23 00:55 | 53.53557 | 0.06713 | 29263 ft | 400 kts | 263° |
| 2026-04-23 00:55 | 53.53214 | 0.02146 | 28803 ft | 389 kts | 273° |
| 2026-04-23 00:55 | 53.53362 | -0.02266 | 28346 ft | 380 kts | 281° |
| 2026-04-23 00:55 | 53.53700 | -0.06715 | 27909 ft | 377 kts | 281° |
| 2026-04-23 00:56 | 53.54027 | -0.11076 | 27461 ft | 375 kts | 281° |
| 2026-04-23 00:56 | 53.54343 | -0.15363 | 27023 ft | 374 kts | 281° |
| 2026-04-23 00:56 | 53.54659 | -0.19695 | 26586 ft | 373 kts | 280° |
| 2026-04-23 00:56 | 53.54973 | -0.24013 | 26144 ft | 371 kts | 280° |
| 2026-04-23 00:57 | 53.55285 | -0.28314 | 25705 ft | 370 kts | 280° |
| 2026-04-23 00:57 | 53.55598 | -0.32610 | 25267 ft | 369 kts | 280° |
| 2026-04-23 00:57 | 53.55907 | -0.36889 | 24831 ft | 368 kts | 279° |
| 2026-04-23 00:57 | 53.56213 | -0.41154 | 24384 ft | 367 kts | 279° |
| 2026-04-23 00:58 | 53.56516 | -0.45408 | 23936 ft | 366 kts | 279° |
| 2026-04-23 00:58 | 53.56812 | -0.49647 | 23478 ft | 364 kts | 279° |
| 2026-04-23 00:58 | 53.57106 | -0.53870 | 23047 ft | 362 kts | 278° |
| 2026-04-23 00:58 | 53.57397 | -0.58063 | 22618 ft | 360 kts | 278° |
| 2026-04-23 00:59 | 53.57685 | -0.62239 | 22193 ft | 358 kts | 278° |
| 2026-04-23 00:59 | 53.57973 | -0.66382 | 21768 ft | 356 kts | 277° |
| 2026-04-23 00:59 | 53.58261 | -0.70508 | 21348 ft | 354 kts | 277° |
| 2026-04-23 00:59 | 53.58547 | -0.74616 | 20933 ft | 352 kts | 276° |
| 2026-04-23 01:00 | 53.58828 | -0.78702 | 20523 ft | 351 kts | 276° |
| 2026-04-23 01:00 | 53.59106 | -0.82766 | 20116 ft | 349 kts | 275° |
| 2026-04-23 01:00 | 53.59380 | -0.86809 | 19710 ft | 347 kts | 275° |
| 2026-04-23 01:00 | 53.59652 | -0.90827 | 19304 ft | 344 kts | 275° |
| 2026-04-23 01:01 | 53.59921 | -0.94822 | 18899 ft | 342 kts | 274° |
| 2026-04-23 01:01 | 53.60186 | -0.98794 | 18463 ft | 341 kts | 274° |
| 2026-04-23 01:01 | 53.60448 | -1.02740 | 18060 ft | 338 kts | 274° |
| 2026-04-23 01:01 | 53.60702 | -1.06607 | 17672 ft | 336 kts | 274° |
| 2026-04-23 01:02 | 53.61109 | -1.10471 | 17339 ft | 335 kts | 281° |
| 2026-04-23 01:02 | 53.61646 | -1.14283 | 17158 ft | 335 kts | 281° |
| 2026-04-23 01:02 | 53.62172 | -1.18095 | 16933 ft | 334 kts | 281° |
| 2026-04-23 01:02 | 53.62689 | -1.21897 | 16705 ft | 332 kts | 280° |
| 2026-04-23 01:03 | 53.63200 | -1.25683 | 16473 ft | 331 kts | 280° |
| 2026-04-23 01:03 | 53.63709 | -1.29461 | 16256 ft | 330 kts | 280° |
| 2026-04-23 01:03 | 53.64217 | -1.33225 | 16035 ft | 329 kts | 280° |
| 2026-04-23 01:03 | 53.64724 | -1.36973 | 15812 ft | 328 kts | 280° |
| 2026-04-23 01:04 | 53.65228 | -1.40712 | 15593 ft | 327 kts | 280° |
| 2026-04-23 01:04 | 53.65728 | -1.44441 | 15372 ft | 325 kts | 280° |
| 2026-04-23 01:04 | 53.66725 | -1.51858 | 14936 ft | 323 kts | 279° |
| 2026-04-23 01:05 | 53.67217 | -1.55547 | 14718 ft | 322 kts | 279° |
| 2026-04-23 01:05 | 53.67706 | -1.59229 | 14504 ft | 321 kts | 279° |
| 2026-04-23 01:05 | 53.68194 | -1.62904 | 14296 ft | 320 kts | 279° |
| 2026-04-23 01:05 | 53.68679 | -1.66563 | 14049 ft | 319 kts | 279° |
| 2026-04-23 01:06 | 53.69162 | -1.70220 | 13847 ft | 318 kts | 279° |
| 2026-04-23 01:06 | 53.69642 | -1.73860 | 13623 ft | 318 kts | 279° |
| 2026-04-23 01:06 | 53.70120 | -1.77493 | 13409 ft | 317 kts | 279° |
| 2026-04-23 01:06 | 53.70595 | -1.81115 | 13199 ft | 316 kts | 279° |
| 2026-04-23 01:07 | 53.71068 | -1.84727 | 12989 ft | 315 kts | 279° |
| 2026-04-23 01:07 | 53.71541 | -1.88334 | 12778 ft | 314 kts | 279° |
| 2026-04-23 01:07 | 53.72012 | -1.91928 | 12567 ft | 313 kts | 279° |
| 2026-04-23 01:07 | 53.72470 | -1.95464 | 12374 ft | 312 kts | 279° |
| 2026-04-23 01:08 | 53.72932 | -1.99036 | 12152 ft | 311 kts | 279° |
| 2026-04-23 01:08 | 53.73391 | -2.02597 | 11948 ft | 310 kts | 280° |
| 2026-04-23 01:08 | 53.73850 | -2.06152 | 11742 ft | 309 kts | 279° |
| 2026-04-23 01:08 | 53.74262 | -2.09675 | 11504 ft | 302 kts | 273° |
| 2026-04-23 01:09 | 53.74284 | -2.13177 | 11331 ft | 297 kts | 262° |
| 2026-04-23 01:09 | 53.74142 | -2.16647 | 11124 ft | 296 kts | 264° |
| 2026-04-23 01:09 | 53.74004 | -2.20113 | 10926 ft | 295 kts | 263° |
| 2026-04-23 01:09 | 53.73867 | -2.23573 | 10730 ft | 295 kts | 263° |
| 2026-04-23 01:10 | 53.73731 | -2.27033 | 10532 ft | 295 kts | 263° |
| 2026-04-23 01:10 | 53.73593 | -2.30486 | 10323 ft | 295 kts | 263° |
| 2026-04-23 01:10 | 53.73454 | -2.33938 | 10098 ft | 295 kts | 262° |
| 2026-04-23 01:10 | 53.73315 | -2.37389 | 9913 ft | 294 kts | 264° |
| 2026-04-23 01:11 | 53.73176 | -2.40825 | 9721 ft | 293 kts | 263° |
| 2026-04-23 01:11 | 53.73033 | -2.44249 | 9523 ft | 292 kts | 264° |
| 2026-04-23 01:11 | 53.72889 | -2.47656 | 9327 ft | 290 kts | 262° |
| 2026-04-23 01:11 | 53.72746 | -2.51059 | 9127 ft | 291 kts | 262° |
| 2026-04-23 01:12 | 53.72865 | -2.54458 | 9023 ft | 293 kts | 281° |
| 2026-04-23 01:12 | 53.73214 | -2.57846 | 8916 ft | 292 kts | 266° |
| 2026-04-23 01:12 | 53.72807 | -2.61136 | 8598 ft | 284 kts | 241° |
| 2026-04-23 01:12 | 53.71614 | -2.63679 | 8221 ft | 274 kts | 214° |
| 2026-04-23 01:13 | 53.69925 | -2.64995 | 7851 ft | 266 kts | 193° |
| 2026-04-23 01:13 | 53.68155 | -2.65719 | 7517 ft | 262 kts | 190° |
| 2026-04-23 01:13 | 53.66409 | -2.66378 | 7460 ft | 248 kts | 190° |
| 2026-04-23 01:13 | 53.64729 | -2.67008 | 7472 ft | 247 kts | 190° |
| 2026-04-23 01:14 | 53.63076 | -2.67627 | 7467 ft | 247 kts | 190° |
| 2026-04-23 01:14 | 53.61404 | -2.68251 | 7469 ft | 247 kts | 190° |
| 2026-04-23 01:14 | 53.59703 | -2.68886 | 7466 ft | 247 kts | 190° |
| 2026-04-23 01:14 | 53.58050 | -2.69503 | 7462 ft | 247 kts | 190° |
| 2026-04-23 01:15 | 53.56372 | -2.70127 | 7463 ft | 247 kts | 190° |
| 2026-04-23 01:15 | 53.54698 | -2.70752 | 7468 ft | 247 kts | 190° |
| 2026-04-23 01:15 | 53.53020 | -2.71377 | 7467 ft | 247 kts | 190° |
| 2026-04-23 01:15 | 53.51344 | -2.72004 | 7462 ft | 247 kts | 190° |
| 2026-04-23 01:16 | 53.49667 | -2.72629 | 7461 ft | 247 kts | 190° |
| 2026-04-23 01:16 | 53.47995 | -2.73252 | 7327 ft | 245 kts | 190° |
| 2026-04-23 01:16 | 53.46335 | -2.73873 | 6961 ft | 244 kts | 190° |
| 2026-04-23 01:16 | 53.44679 | -2.74497 | 6591 ft | 243 kts | 189° |
| 2026-04-23 01:17 | 53.43023 | -2.74653 | 6241 ft | 237 kts | 173° |
| 2026-04-23 01:17 | 53.41394 | -2.74339 | 5878 ft | 235 kts | 170° |
| 2026-04-23 01:17 | 53.39780 | -2.73985 | 5531 ft | 232 kts | 170° |
| 2026-04-23 01:17 | 53.38186 | -2.73634 | 5196 ft | 230 kts | 170° |
| 2026-04-23 01:18 | 53.36608 | -2.73289 | 4854 ft | 227 kts | 170° |
| 2026-04-23 01:18 | 53.35048 | -2.72948 | 4509 ft | 225 kts | 170° |
| 2026-04-23 01:18 | 53.33504 | -2.72613 | 4180 ft | 223 kts | 170° |
| 2026-04-23 01:18 | 53.31975 | -2.72284 | 3850 ft | 220 kts | 170° |
| 2026-04-23 01:19 | 53.30465 | -2.71957 | 3518 ft | 218 kts | 170° |
| 2026-04-23 01:19 | 53.28972 | -2.71633 | 3179 ft | 215 kts | 170° |
| 2026-04-23 01:19 | 53.27511 | -2.71309 | 3001 ft | 206 kts | 168° |
| 2026-04-23 01:19 | 53.26189 | -2.70510 | 2993 ft | 202 kts | 152° |
| 2026-04-23 01:20 | 53.24956 | -2.69390 | 2989 ft | 202 kts | 150° |
| 2026-04-23 01:20 | 53.23735 | -2.68231 | 2991 ft | 202 kts | 150° |
| 2026-04-23 01:20 | 53.22518 | -2.67072 | 2990 ft | 202 kts | 150° |
| 2026-04-23 01:20 | 53.21299 | -2.65907 | 2994 ft | 202 kts | 148° |
| 2026-04-23 01:21 | 53.20301 | -2.64278 | 2994 ft | 204 kts | 124° |
| 2026-04-23 01:21 | 53.19816 | -2.62044 | 2994 ft | 210 kts | 101° |
| 2026-04-23 01:21 | 53.19966 | -2.59649 | 2983 ft | 207 kts | 76° |
| 2026-04-23 01:21 | 53.20704 | -2.57627 | 2991 ft | 202 kts | 57° |
| 2026-04-23 01:22 | 53.21579 | -2.55854 | 2997 ft | 195 kts | 58° |
| 2026-04-23 01:22 | 53.22427 | -2.54124 | 2991 ft | 191 kts | 58° |
| 2026-04-23 01:22 | 53.23260 | -2.52420 | 2998 ft | 189 kts | 58° |
| 2026-04-23 01:22 | 53.24085 | -2.50730 | 3001 ft | 188 kts | 58° |
| 2026-04-23 01:23 | 53.24910 | -2.49039 | 3004 ft | 187 kts | 58° |
| 2026-04-23 01:23 | 53.25732 | -2.47354 | 2998 ft | 187 kts | 58° |
| 2026-04-23 01:23 | 53.26553 | -2.45669 | 2851 ft | 187 kts | 58° |
| 2026-04-23 01:23 | 53.27374 | -2.43983 | 2624 ft | 188 kts | 57° |
| 2026-04-23 01:24 | 53.28190 | -2.42305 | 2382 ft | 190 kts | 57° |
| 2026-04-23 01:24 | 53.29028 | -2.40583 | 2116 ft | 192 kts | 57° |
| 2026-04-23 01:24 | 53.29858 | -2.38879 | 1873 ft | 185 kts | 56° |
| 2026-04-23 01:24 | 53.30654 | -2.37242 | 1596 ft | 176 kts | 56° |
| 2026-04-23 01:25 | 53.31392 | -2.35725 | 1372 ft | 160 kts | 55° |
| 2026-04-23 01:25 | 53.32056 | -2.34356 | 1137 ft | 145 kts | 54° |
| 2026-04-23 01:25 | 53.32669 | -2.33089 | 928 ft | 136 kts | 53° |
| 2026-04-23 01:25 | 53.33261 | -2.31883 | 752 ft | 134 kts | 52° |
| 2026-04-23 01:26 | 53.33823 | -2.30663 | 569 ft | 132 kts | 52° |
| 2026-04-23 01:26 | 53.34423 | -2.29494 | 381 ft | 130 kts | 54° |
| 2026-04-23 01:26 | 53.34999 | -2.28293 | 255 ft | 128 kts | 52° |
| 2026-04-23 01:26 | 53.35480 | -2.27276 | 262 ft | 89 kts | 51° |
| 2026-04-23 01:27 | 53.35759 | -2.26700 | 266 ft | 39 kts | 51° |
| 2026-04-23 01:27 | 53.35920 | -2.26370 | 262 ft | 36 kts | 51° |
| 2026-04-23 01:27 | 53.36029 | -2.26151 | 259 ft | 14 kts | 41° |
| 2026-04-23 01:27 | 53.36099 | -2.26197 | 258 ft | 10 kts | 324° |
| 2026-04-23 01:28 | 53.36137 | -2.26278 | 253 ft | 9 kts | 282° |
| 2026-04-23 01:28 | 53.36108 | -2.26382 | 252 ft | 10 kts | 233° |
| 2026-04-23 01:28 | 53.36071 | -2.26461 | 254 ft | 7 kts | 232° |
| 2026-04-23 01:28 | 53.36042 | -2.26522 | 254 ft | 7 kts | 231° |
| 2026-04-23 01:29 | 53.36012 | -2.26584 | 254 ft | 6 kts | 232° |
| 2026-04-23 01:29 | 53.35986 | -2.26639 | 254 ft | 6 kts | 232° |
| 2026-04-23 01:29 | 53.35962 | -2.26690 | 254 ft | 6 kts | 232° |
| 2026-04-23 01:29 | 53.35927 | -2.26763 | 254 ft | 11 kts | 234° |
| 2026-04-23 01:30 | 53.35872 | -2.26892 | 254 ft | 16 kts | 233° |
| 2026-04-23 01:30 | 53.35814 | -2.27043 | 253 ft | 14 kts | 240° |
| 2026-04-23 01:30 | 53.35757 | -2.27177 | 252 ft | 15 kts | 232° |
| 2026-04-23 01:30 | 53.35703 | -2.27291 | 252 ft | 14 kts | 231° |
| 2026-04-23 01:31 | 53.35637 | -2.27425 | 253 ft | 14 kts | 228° |
| 2026-04-23 01:31 | 53.35666 | -2.27582 | 248 ft | 18 kts | 325° |
| 2026-04-23 01:31 | 53.35779 | -2.27677 | 247 ft | 18 kts | 324° |
| 2026-04-23 01:31 | 53.35874 | -2.27831 | 247 ft | 18 kts | 338° |
| 2026-04-23 01:32 | 53.35996 | -2.27883 | 247 ft | 19 kts | 319° |
| 2026-04-23 01:32 | 53.36097 | -2.28046 | 247 ft | 22 kts | 315° |
| 2026-04-23 01:32 | 53.36209 | -2.28234 | 247 ft | 22 kts | 311° |
| 2026-04-23 01:32 | 53.36307 | -2.28406 | 247 ft | 16 kts | 313° |
| 2026-04-23 01:33 | 53.36384 | -2.28477 | 247 ft | 12 kts | 348° |
| 2026-04-23 01:33 | 53.36454 | -2.28544 | 247 ft | 12 kts | 314° |
| 2026-04-23 01:33 | 53.36511 | -2.28642 | 247 ft | 12 kts | 315° |
| 2026-04-23 01:33 | 53.36566 | -2.28736 | 247 ft | 11 kts | 314° |
| 2026-04-23 01:34 | 53.36630 | -2.28777 | 247 ft | 10 kts | 24° |
| 2026-04-23 01:34 | 53.36683 | -2.28696 | 247 ft | 11 kts | 44° |
| 2026-04-23 01:34 | 53.36741 | -2.28600 | 247 ft | 12 kts | 45° |
| 2026-04-23 01:34 | 53.36768 | -2.28553 | 247 ft | 2 kts | 49° |
| 2026-04-23 01:35 | 53.36770 | -2.28544 | 247 ft | 0 kts | 68° |
| 2026-04-23 01:35 | 53.36766 | -2.28504 | 247 ft | 7 kts | 115° |
| 2026-04-23 01:35 | 53.36747 | -2.28474 | 247 ft | 2 kts | 137° |
| 2026-04-23 01:35 | 53.36739 | -2.28460 | 247 ft | 0 kts | 135° |
| 2026-04-23 01:36 | 53.36739 | -2.28459 | 247 ft | 0 kts | 135° |
| 2026-04-23 01:36 | 53.36737 | -2.28456 | 247 ft | 1 kts | 135° |
| 2026-04-23 01:36 | 53.36737 | -2.28455 | 247 ft | 0 kts | 135° |